Terminal Aerodrome Forecast
Issued by NWS

Home | Current Version | Previous Version | Text Only | Print | Product List | Glossary On
Versions: 1 2 3 4 5 6 7 8 9 10 11 12 13 14 15 16 17 18 19
000
FTUS46 KMFR 190024 AAA
TAFOTH
TAF AMD
KOTH 190024Z 1900/1924 31008KT P6SM -RA FEW012 BKN040 OVC100
     FM190100 31012G20KT P6SM -SHRA SCT020 OVC040
     FM190400 25010G15KT P6SM -SHRA SCT020 BKN035
     FM191000 33007KT P6SM VCSH SCT020 BKN050
     FM191200 36006KT P6SM BKN050=

USA.gov is the U.S. government's official web portal to all federal, state and local government web resources and services.